Keumyang Family — DSNO8 — position and weather

sailwx.info

Track history (hours):
 
Tides and Currents Weather Stations Pressure Air Temp Water Temp Dewpoint Dewpoint Depression Visibility Wind Speed Wind Dir Waves Ship Positions

Keumyang Family

Last reported at 2015-Mar-04 07:33 UTC. Time now 2015-Mar-06 04:07 UTC.
Position N 35°12' E 139°46'.

Length 95 m.

Type: Tanker. MMSI: 441416000.

Date/timePositionNaut miles runAvg speedWind from/ knotsBaromVisibWave heightAir tempDewpointWater temp
2015-Mar-04 07:33N 35°12' E 139°46'6 5.5
2015-Mar-04 06:32N 35°17' E 139°45'8 7.7
2015-Mar-04 05:33N 35°25' E 139°43'8 8.5
2015-Mar-04 04:33N 35°30' E 139°51'7 1.1
2015-Mar-03 22:33N 35°37' E 139°48'4 1.2
2015-Mar-03 19:30N 35°34' E 139°50'0 0.0
2015-Mar-03 08:19N 35°34' E 139°51'5 5.7
2015-Mar-03 07:25N 35°29' E 139°51'5 5.5
2015-Mar-03 06:34N 35°29' E 139°46'0 0.3
2015-Mar-03 05:26N 35°30' E 139°46'0 0.0
2015-Mar-03 03:26N 35°30' E 139°46'0 0.0
2015-Mar-03 02:14N 35°30' E 139°46'0 0.0
2015-Mar-03 01:29N 35°30' E 139°46'0 0.0
2015-Mar-03 00:33N 35°30' E 139°46'0 0.0
2015-Mar-02 23:32N 35°30' E 139°46'0 0.1
2015-Mar-02 22:33N 35°30' E 139°46'4 3.8
2015-Mar-02 21:33N 35°26' E 139°46'7 7.3
2015-Mar-02 20:34N 35°19' E 139°44'7 7.4
2015-Mar-02 19:34N 35°12' E 139°47'  
Track history (hours):
 
Tides and Currents Weather Stations Pressure Air Temp Water Temp Dewpoint Dewpoint Depression Visibility Wind Speed Wind Dir Waves Ship Positions

Keumyang Family

Last reported at 2015-Mar-04 07:33 UTC. Time now 2015-Mar-06 04:07 UTC.
Position N 35°12' E 139°46'.

Length 95 m.

Type: Tanker. MMSI: 441416000.

Date/timePositionNaut miles runAvg speedWind from/ knotsBaromVisibWave heightAir tempDewpointWater temp
2015-Mar-04 07:33N 35°12' E 139°46'6 5.5
2015-Mar-04 06:32N 35°17' E 139°45'8 7.7
2015-Mar-04 05:33N 35°25' E 139°43'8 8.5
2015-Mar-04 04:33N 35°30' E 139°51'7 1.1
2015-Mar-03 22:33N 35°37' E 139°48'4 1.2
2015-Mar-03 19:30N 35°34' E 139°50'0 0.0
2015-Mar-03 08:19N 35°34' E 139°51'5 5.7
2015-Mar-03 07:25N 35°29' E 139°51'5 5.5
2015-Mar-03 06:34N 35°29' E 139°46'0 0.3
2015-Mar-03 05:26N 35°30' E 139°46'0 0.0
2015-Mar-03 03:26N 35°30' E 139°46'0 0.0
2015-Mar-03 02:14N 35°30' E 139°46'0 0.0
2015-Mar-03 01:29N 35°30' E 139°46'0 0.0
2015-Mar-03 00:33N 35°30' E 139°46'0 0.0
2015-Mar-02 23:32N 35°30' E 139°46'0 0.1
2015-Mar-02 22:33N 35°30' E 139°46'4 3.8
2015-Mar-02 21:33N 35°26' E 139°46'7 7.3
2015-Mar-02 20:34N 35°19' E 139°44'7 7.4
2015-Mar-02 19:34N 35°12' E 139°47'  

Dump ship's entire track history